Terminal Aerodrome Forecast
Issued by NWS Pocatello, ID

Home | Current Version | Previous Version | Text Only | Print | Product List | Glossary On
Versions: 1 2 3 4 5 6 7 8 9 10 11 12 13 14
000
FTUS45 KPIH 252300
TAFPIH
TAF
KPIH 252320Z 2600/2624 20015G25KT P6SM BKN150 OVC200
     FM260300 20012KT P6SM SCT150 BKN200
     FM261000 21015KT P6SM VCSH SCT060 OVC100
     FM261500 25015G25KT P6SM VCSH SCT050 BKN090=

USA.gov is the U.S. government's official web portal to all federal, state and local government web resources and services.